Williamson, Illinois
Current Conditions -  °F | °C
As of 12:55 PM on Thursday 23 Oct 2014 (Local Time) from K3LF Reporting Station
Clear Clear  
Wind Chill: 57°   Ceiling: Unl
Heat Index: 57°   Visibility: 10mi
Dew Point: 41°   Wind: 9mph
Humidity: 55%   Direction: 200°SSW
Pressure: 30.18"   Gusts: NA
Location:  39.0218°N, 89.7604°W
Report Text: K3LF 231755Z AUTO 20008KT 10SM CLR 14/05 A3018 RMK AO2 T01400052 10140 20035
Loading
Personal Weather Stations






























Interactive Weather Map
Tropical Storm Tracking
New forecast layout! Learn more

10-Day Weather Forecast

Advertisements
Track Severe Weather on mobile